createdAt,value
2022-12-18T00:00:08.080Z,100.00
2022-12-18T00:03:16.386Z,100.00
2022-12-18T00:06:20.200Z,100.00
2022-12-18T00:09:24.713Z,100.00
2022-12-18T00:12:29.879Z,100.00
2022-12-18T00:15:35.696Z,100.00
2022-12-18T00:18:38.774Z,100.00
2022-12-18T00:21:41.893Z,100.00
2022-12-18T00:24:44.801Z,100.00
2022-12-18T00:27:47.336Z,100.00
2022-12-18T00:30:52.390Z,100.00
2022-12-18T00:33:56.703Z,100.00
2022-12-18T00:36:59.368Z,100.00
2022-12-18T00:40:02.298Z,100.00
2022-12-18T00:43:05.067Z,100.00
2022-12-18T00:46:07.645Z,100.00
2022-12-18T00:49:15.113Z,100.00
2022-12-18T00:52:17.641Z,100.00
2022-12-18T00:55:20.487Z,100.00
2022-12-18T00:58:23.244Z,100.00
2022-12-18T01:01:26.073Z,100.00
2022-12-18T01:04:32.963Z,100.00
2022-12-18T01:07:36.325Z,100.00
2022-12-18T01:10:42.038Z,100.00
2022-12-18T01:13:45.290Z,100.00
2022-12-18T01:16:47.778Z,100.00
2022-12-18T01:19:50.629Z,100.00
2022-12-18T01:22:53.091Z,100.00
2022-12-18T01:25:56.998Z,100.00
2022-12-18T01:28:59.515Z,100.00
2022-12-18T01:32:02.368Z,100.00
2022-12-18T01:35:06.579Z,100.00
2022-12-18T01:38:09.604Z,100.00
2022-12-18T01:41:12.886Z,100.00
2022-12-18T01:44:55.063Z,100.00
2022-12-18T01:48:02.417Z,100.00
2022-12-18T01:51:05.791Z,100.00
2022-12-18T01:54:08.571Z,100.00
2022-12-18T01:57:11.520Z,100.00
2022-12-18T02:00:20.207Z,100.00
2022-12-18T02:03:22.992Z,100.00
2022-12-18T02:06:40.965Z,100.00
2022-12-18T02:10:12.254Z,100.00
2022-12-18T02:13:31.008Z,100.00
2022-12-18T02:16:33.818Z,100.00
2022-12-18T02:19:45.778Z,100.00
2022-12-18T02:23:11.941Z,100.00
2022-12-18T02:26:37.311Z,100.00
2022-12-18T02:29:57.631Z,100.00
2022-12-18T02:33:04.954Z,100.00
2022-12-18T02:36:11.764Z,100.00
2022-12-18T02:39:16.626Z,100.00
2022-12-18T02:42:20.770Z,100.00
2022-12-18T02:45:24.000Z,100.00
2022-12-18T02:48:33.914Z,100.00
2022-12-18T02:51:47.618Z,100.00
2022-12-18T02:55:08.190Z,100.00
2022-12-18T02:58:20.185Z,100.00
2022-12-18T03:01:37.013Z,100.00
2022-12-18T03:04:50.668Z,100.00
2022-12-18T03:07:59.347Z,100.00
2022-12-18T03:11:07.160Z,100.00
2022-12-18T03:14:13.902Z,100.00
2022-12-18T03:17:21.660Z,100.00
2022-12-18T03:20:26.735Z,100.00
2022-12-18T03:23:35.553Z,100.00
2022-12-18T03:26:44.809Z,100.00
2022-12-18T03:30:08.554Z,100.00
2022-12-18T03:33:21.334Z,100.00
2022-12-18T03:36:24.846Z,100.00
2022-12-18T03:39:28.249Z,100.00
2022-12-18T03:42:52.232Z,100.00
2022-12-18T03:46:04.009Z,100.00
2022-12-18T03:49:15.023Z,100.00
2022-12-18T03:52:58.518Z,100.00
2022-12-18T03:56:03.093Z,100.00
2022-12-18T03:59:09.106Z,100.00
2022-12-18T04:02:14.699Z,100.00
2022-12-18T04:05:18.683Z,100.00
2022-12-18T04:08:23.621Z,100.00
2022-12-18T04:11:27.403Z,100.00
2022-12-18T04:14:29.896Z,100.00
2022-12-18T04:17:32.839Z,100.00
2022-12-18T04:20:35.759Z,100.00
2022-12-18T04:23:39.594Z,100.00
2022-12-18T04:26:42.829Z,100.00
2022-12-18T04:29:46.075Z,100.00
2022-12-18T04:32:52.161Z,100.00
2022-12-18T04:35:55.779Z,100.00
2022-12-18T04:38:59.003Z,100.00
2022-12-18T04:42:01.803Z,100.00
2022-12-18T04:45:04.769Z,100.00
2022-12-18T04:48:07.749Z,100.00
2022-12-18T04:51:10.167Z,100.00
2022-12-18T04:54:12.838Z,100.00
2022-12-18T04:57:15.326Z,100.00
2022-12-18T05:00:18.258Z,100.00
2022-12-18T05:03:20.741Z,100.00
2022-12-18T05:06:23.607Z,100.00
2022-12-18T05:09:26.126Z,100.00
2022-12-18T05:12:28.905Z,100.00
2022-12-18T05:15:32.541Z,100.00
2022-12-18T05:18:35.975Z,100.00
2022-12-18T05:21:38.431Z,100.00
2022-12-18T05:24:41.135Z,100.00
2022-12-18T05:27:43.624Z,100.00
2022-12-18T05:30:54.772Z,100.00
2022-12-18T05:33:57.283Z,100.00
2022-12-18T05:37:00.317Z,100.00
2022-12-18T05:40:04.838Z,100.00
2022-12-18T05:43:07.653Z,100.00
2022-12-18T05:46:16.648Z,100.00
2022-12-18T05:49:19.574Z,100.00
2022-12-18T05:52:22.232Z,100.00
2022-12-18T05:55:24.962Z,100.00
2022-12-18T05:58:27.433Z,100.00
2022-12-18T06:01:30.358Z,100.00
2022-12-18T06:04:33.886Z,100.00
2022-12-18T06:07:38.218Z,100.00
2022-12-18T06:10:41.648Z,100.00
2022-12-18T06:13:44.097Z,100.00
2022-12-18T06:16:46.813Z,100.00
2022-12-18T06:19:49.337Z,100.00
2022-12-18T06:22:52.191Z,100.00
2022-12-18T06:25:54.838Z,100.00
2022-12-18T06:28:57.913Z,100.00
2022-12-18T06:32:01.128Z,100.00
2022-12-18T06:35:04.863Z,100.00
2022-12-18T06:38:07.971Z,100.00
2022-12-18T06:41:13.808Z,100.00
2022-12-18T06:44:16.568Z,100.00
2022-12-18T06:47:19.754Z,100.00
2022-12-18T06:50:23.527Z,100.00
2022-12-18T06:53:26.562Z,100.00
2022-12-18T06:56:29.161Z,100.00
2022-12-18T06:59:31.864Z,100.00
2022-12-18T07:02:35.086Z,100.00
2022-12-18T07:05:41.894Z,100.00
2022-12-18T07:08:45.232Z,100.00
2022-12-18T07:11:48.278Z,100.00
2022-12-18T07:14:50.696Z,100.00
2022-12-18T07:17:53.539Z,100.00
2022-12-18T07:20:55.995Z,100.00
2022-12-18T07:23:58.981Z,100.00
2022-12-18T07:27:01.892Z,100.00
2022-12-18T07:30:05.365Z,100.00
2022-12-18T07:33:08.146Z,100.00
2022-12-18T07:36:11.882Z,100.00
2022-12-18T07:39:14.617Z,100.00
2022-12-18T07:42:32.778Z,100.00
2022-12-18T07:45:35.280Z,100.00
2022-12-18T07:48:38.140Z,100.00
2022-12-18T07:51:40.578Z,100.00
2022-12-18T07:54:43.572Z,100.00
2022-12-18T07:57:51.857Z,100.00
2022-12-18T08:01:06.108Z,100.00
2022-12-18T08:04:09.356Z,100.00
2022-12-18T08:07:11.857Z,100.00
2022-12-18T08:10:14.666Z,100.00
2022-12-18T08:13:17.084Z,100.00
2022-12-18T08:16:20.897Z,100.00
2022-12-18T08:19:23.623Z,100.00
2022-12-18T08:22:26.389Z,100.00
2022-12-18T08:25:28.826Z,100.00
2022-12-18T08:28:31.669Z,100.00
2022-12-18T08:31:34.299Z,100.00
2022-12-18T08:34:37.345Z,100.00
2022-12-18T08:37:39.728Z,100.00
2022-12-18T08:40:42.985Z,100.00
2022-12-18T08:44:04.414Z,100.00
2022-12-18T08:47:08.424Z,100.00
2022-12-18T08:50:12.135Z,100.00
2022-12-18T08:53:15.306Z,100.00
2022-12-18T08:56:17.986Z,100.00
2022-12-18T08:59:21.310Z,100.00
2022-12-18T09:02:24.253Z,100.00
2022-12-18T09:05:27.051Z,100.00
2022-12-18T09:08:30.446Z,100.00
2022-12-18T09:11:34.272Z,100.00
2022-12-18T09:14:37.008Z,100.00
2022-12-18T09:17:39.834Z,100.00
2022-12-18T09:20:42.891Z,100.00
2022-12-18T09:23:53.632Z,100.00
2022-12-18T09:26:57.775Z,100.00
2022-12-18T09:30:00.996Z,100.00
2022-12-18T09:33:03.798Z,99.97
2022-12-18T09:36:08.779Z,99.31
2022-12-18T09:39:11.312Z,99.54
2022-12-18T09:42:21.410Z,98.18
2022-12-18T09:45:25.105Z,97.92
2022-12-18T09:48:41.971Z,97.26
2022-12-18T09:51:53.504Z,97.91
2022-12-18T09:55:00.297Z,97.55
2022-12-18T09:58:11.224Z,96.44
2022-12-18T10:01:23.823Z,95.95
2022-12-18T10:04:31.888Z,95.12
2022-12-18T10:08:17.434Z,92.19
2022-12-18T10:11:40.972Z,94.20
2022-12-18T10:14:55.738Z,95.04
2022-12-18T10:18:05.559Z,91.48
2022-12-18T10:21:16.430Z,88.49
2022-12-18T10:24:33.594Z,86.64
2022-12-18T10:27:36.212Z,87.28
2022-12-18T10:30:41.098Z,88.00
2022-12-18T10:33:44.387Z,88.51
2022-12-18T10:36:48.751Z,88.40
2022-12-18T10:40:09.495Z,88.81
2022-12-18T10:43:15.551Z,86.97
2022-12-18T10:46:20.869Z,86.01
2022-12-18T10:49:27.799Z,85.02
2022-12-18T10:52:31.025Z,85.77
2022-12-18T10:55:38.704Z,85.41
2022-12-18T10:58:41.825Z,84.25
2022-12-18T11:01:58.489Z,84.12
2022-12-18T11:05:01.950Z,83.99
2022-12-18T11:08:04.997Z,84.29
2022-12-18T11:11:31.590Z,82.33
2022-12-18T11:14:47.141Z,81.30
2022-12-18T11:17:51.960Z,80.79
2022-12-18T11:21:00.321Z,81.50
2022-12-18T11:24:03.069Z,81.21
2022-12-18T11:27:16.429Z,78.52
2022-12-18T11:30:23.810Z,78.81
2022-12-18T11:33:26.991Z,78.87
2022-12-18T11:36:34.831Z,79.54
2022-12-18T11:39:42.294Z,78.93
2022-12-18T11:42:55.907Z,78.31
2022-12-18T11:46:08.481Z,78.21
2022-12-18T11:49:18.245Z,77.96
2022-12-18T11:52:29.274Z,76.59
2022-12-18T11:55:45.776Z,74.12
2022-12-18T11:58:59.526Z,74.44
2022-12-18T12:02:14.319Z,74.15
2022-12-18T12:05:37.834Z,74.52
2022-12-18T12:09:02.325Z,76.27
2022-12-18T12:12:23.079Z,75.92
2022-12-18T12:15:36.955Z,74.34
2022-12-18T12:18:51.183Z,74.64
2022-12-18T12:22:05.029Z,74.81
2022-12-18T12:25:34.094Z,75.27
2022-12-18T12:28:43.007Z,72.19
2022-12-18T12:31:54.087Z,70.86
2022-12-18T12:35:27.886Z,69.22
2022-12-18T12:38:51.617Z,68.63
2022-12-18T12:42:14.942Z,67.79
2022-12-18T12:45:27.101Z,66.80
2022-12-18T12:49:00.697Z,69.22
2022-12-18T12:52:13.326Z,70.25
2022-12-18T12:55:22.972Z,71.57
2022-12-18T12:58:42.704Z,71.80
2022-12-18T13:02:03.688Z,72.78
2022-12-18T13:05:39.678Z,73.19
2022-12-18T13:08:56.023Z,73.34
2022-12-18T13:12:34.865Z,73.97
2022-12-18T13:15:40.855Z,71.25
2022-12-18T13:18:53.061Z,67.04
2022-12-18T13:21:57.611Z,67.02
2022-12-18T13:25:00.891Z,67.65
2022-12-18T13:28:10.025Z,69.59
2022-12-18T13:31:13.650Z,70.18
2022-12-18T13:34:27.496Z,72.05
2022-12-18T13:37:33.688Z,73.07
2022-12-18T13:40:48.458Z,72.69
2022-12-18T13:43:58.797Z,73.25
2022-12-18T13:47:03.570Z,74.12
2022-12-18T13:50:32.282Z,76.82
2022-12-18T13:53:45.261Z,78.25
2022-12-18T13:56:49.465Z,79.13
2022-12-18T13:59:52.560Z,79.20
2022-12-18T14:02:56.662Z,79.58
2022-12-18T14:06:07.285Z,79.97
2022-12-18T14:09:20.304Z,81.94
2022-12-18T14:14:37.584Z,81.53
2022-12-18T14:17:40.793Z,82.00
2022-12-18T14:20:52.597Z,82.94
2022-12-18T14:24:17.554Z,83.93
2022-12-18T14:27:26.028Z,84.37
2022-12-18T14:30:36.207Z,85.55
2022-12-18T14:33:39.509Z,87.16
2022-12-18T14:36:53.531Z,87.52
2022-12-18T14:40:08.667Z,87.44
2022-12-18T14:43:13.859Z,89.14
2022-12-18T14:46:35.431Z,89.41
2022-12-18T14:49:43.242Z,89.83
2022-12-18T14:52:45.898Z,90.63
2022-12-18T14:55:49.529Z,90.94
2022-12-18T14:58:59.059Z,92.70
2022-12-18T15:02:23.205Z,93.93
2022-12-18T15:05:31.039Z,98.34
2022-12-18T15:08:38.381Z,97.80
2022-12-18T15:11:40.952Z,98.34
2022-12-18T15:14:43.797Z,98.35
2022-12-18T15:17:46.290Z,98.61
2022-12-18T15:20:56.166Z,98.93
2022-12-18T15:23:58.744Z,98.40
2022-12-18T15:27:02.188Z,98.31
2022-12-18T15:30:24.903Z,98.66
2022-12-18T15:33:32.362Z,99.38
2022-12-18T15:36:37.679Z,100.00
2022-12-18T15:39:40.453Z,100.00
2022-12-18T15:43:02.750Z,100.00
2022-12-18T15:46:11.991Z,100.00
2022-12-18T15:49:14.530Z,100.00
2022-12-18T15:52:26.970Z,100.00
2022-12-18T15:55:48.460Z,100.00
2022-12-18T15:58:51.294Z,100.00
2022-12-18T16:01:54.419Z,100.00
2022-12-18T16:04:57.357Z,100.00
2022-12-18T16:07:59.986Z,100.00
2022-12-18T16:11:03.446Z,100.00
2022-12-18T16:14:22.407Z,100.00
2022-12-18T16:17:25.324Z,100.00
2022-12-18T16:20:27.814Z,100.00
2022-12-18T16:23:30.535Z,100.00
2022-12-18T16:26:33.104Z,100.00
2022-12-18T16:29:35.896Z,100.00
2022-12-18T16:32:38.472Z,100.00
2022-12-18T16:35:41.526Z,100.00
2022-12-18T16:38:45.147Z,100.00
2022-12-18T16:41:48.283Z,100.00
2022-12-18T16:44:51.040Z,100.00
2022-12-18T16:47:53.780Z,100.00
2022-12-18T16:51:05.333Z,100.00
2022-12-18T16:54:11.002Z,100.00
2022-12-18T16:57:17.711Z,100.00
2022-12-18T17:00:20.603Z,100.00
2022-12-18T17:03:24.905Z,100.00
2022-12-18T17:06:31.562Z,100.00
2022-12-18T17:09:34.278Z,100.00
2022-12-18T17:12:37.370Z,100.00
2022-12-18T17:15:40.004Z,100.00
2022-12-18T17:18:43.310Z,100.00
2022-12-18T17:21:48.599Z,100.00
2022-12-18T17:24:51.446Z,100.00
2022-12-18T17:27:54.000Z,100.00
2022-12-18T17:30:57.411Z,100.00
2022-12-18T17:34:02.018Z,100.00
2022-12-18T17:37:04.832Z,100.00
2022-12-18T17:40:08.206Z,100.00
2022-12-18T17:43:11.940Z,100.00
2022-12-18T17:46:15.212Z,100.00
2022-12-18T17:49:18.130Z,100.00
2022-12-18T17:52:20.627Z,100.00
2022-12-18T17:55:23.586Z,100.00
2022-12-18T17:58:26.301Z,100.00
2022-12-18T18:01:29.442Z,100.00
2022-12-18T18:04:32.345Z,100.00
2022-12-18T18:07:35.067Z,100.00
2022-12-18T18:10:39.542Z,100.00
2022-12-18T18:14:00.876Z,100.00
2022-12-18T18:17:04.890Z,100.00
2022-12-18T18:20:08.179Z,100.00
2022-12-18T18:23:11.469Z,100.00
2022-12-18T18:26:14.221Z,100.00
2022-12-18T18:29:20.970Z,100.00
2022-12-18T18:32:23.629Z,100.00
2022-12-18T18:35:52.737Z,100.00
2022-12-18T18:38:49.287Z,100.00
2022-12-18T18:41:52.195Z,100.00
2022-12-18T18:44:54.685Z,100.00
2022-12-18T18:47:59.083Z,100.00
2022-12-18T18:51:06.771Z,100.00
2022-12-18T18:54:10.069Z,100.00
2022-12-18T18:57:25.206Z,100.00
2022-12-18T19:00:30.450Z,100.00
2022-12-18T19:03:33.633Z,100.00
2022-12-18T19:06:36.507Z,100.00
2022-12-18T19:09:39.912Z,100.00
2022-12-18T19:13:03.025Z,100.00
2022-12-18T19:16:08.639Z,100.00
2022-12-18T19:19:13.489Z,100.00
2022-12-18T19:22:16.198Z,100.00
2022-12-18T19:25:19.065Z,100.00
2022-12-18T19:28:26.265Z,100.00
2022-12-18T19:31:35.144Z,100.00
2022-12-18T19:34:38.625Z,100.00
2022-12-18T19:37:41.683Z,100.00
2022-12-18T19:40:46.076Z,100.00
2022-12-18T19:43:49.523Z,100.00
2022-12-18T19:46:51.985Z,100.00
2022-12-18T19:49:54.888Z,100.00
2022-12-18T19:52:57.899Z,100.00
2022-12-18T19:56:09.342Z,100.00
2022-12-18T19:59:11.937Z,100.00
2022-12-18T20:02:14.837Z,100.00
2022-12-18T20:05:22.197Z,100.00
2022-12-18T20:08:24.744Z,100.00
2022-12-18T20:11:31.571Z,100.00
2022-12-18T20:14:34.152Z,100.00
2022-12-18T20:17:37.041Z,100.00
2022-12-18T20:20:39.936Z,100.00
2022-12-18T20:23:43.604Z,100.00
2022-12-18T20:26:46.472Z,100.00
2022-12-18T20:29:49.451Z,100.00
2022-12-18T20:32:51.954Z,100.00
2022-12-18T20:35:59.842Z,100.00
2022-12-18T20:39:04.017Z,100.00
2022-12-18T20:42:09.294Z,100.00
2022-12-18T20:45:11.767Z,100.00
2022-12-18T20:48:14.599Z,100.00
2022-12-18T20:51:20.206Z,100.00
2022-12-18T20:54:25.186Z,100.00
2022-12-18T20:57:27.976Z,100.00
2022-12-18T21:00:30.786Z,100.00
2022-12-18T21:03:36.745Z,100.00
2022-12-18T21:06:39.597Z,100.00
2022-12-18T21:09:42.655Z,100.00
2022-12-18T21:13:00.078Z,100.00
2022-12-18T21:16:07.451Z,100.00
2022-12-18T21:19:14.624Z,100.00
2022-12-18T21:22:17.067Z,100.00
2022-12-18T21:25:20.122Z,100.00
2022-12-18T21:28:22.584Z,100.00
2022-12-18T21:31:28.343Z,100.00
2022-12-18T21:34:32.552Z,100.00
2022-12-18T21:37:35.570Z,100.00
2022-12-18T21:40:39.440Z,100.00
2022-12-18T21:44:00.584Z,100.00
2022-12-18T21:47:12.312Z,100.00
2022-12-18T21:50:25.595Z,100.00
2022-12-18T21:53:28.149Z,100.00
2022-12-18T21:56:50.397Z,100.00
2022-12-18T21:59:52.864Z,100.00
2022-12-18T22:03:17.407Z,100.00
2022-12-18T22:06:18.425Z,100.00
2022-12-18T22:09:23.564Z,100.00
2022-12-18T22:12:36.422Z,100.00
2022-12-18T22:15:43.188Z,100.00
2022-12-18T22:18:46.146Z,100.00
2022-12-18T22:21:49.489Z,100.00
2022-12-18T22:24:52.298Z,100.00
2022-12-18T22:28:13.560Z,100.00
2022-12-18T22:31:16.384Z,100.00
2022-12-18T22:34:22.802Z,100.00
2022-12-18T22:37:26.204Z,100.00
2022-12-18T22:40:29.458Z,100.00
2022-12-18T22:43:33.435Z,100.00
2022-12-18T22:46:39.261Z,100.00
2022-12-18T22:49:42.172Z,100.00
2022-12-18T22:52:44.681Z,100.00
2022-12-18T22:55:47.496Z,100.00
2022-12-18T22:58:51.459Z,100.00
2022-12-18T23:01:58.721Z,100.00
2022-12-18T23:05:01.887Z,100.00
2022-12-18T23:08:05.026Z,100.00
2022-12-18T23:11:08.302Z,100.00
2022-12-18T23:14:12.106Z,100.00
2022-12-18T23:17:14.616Z,100.00
2022-12-18T23:20:17.398Z,100.00
2022-12-18T23:23:19.856Z,100.00
2022-12-18T23:26:24.710Z,100.00
2022-12-18T23:29:27.893Z,100.00
2022-12-18T23:32:30.669Z,100.00
2022-12-18T23:35:35.506Z,100.00
2022-12-18T23:38:38.498Z,100.00
2022-12-18T23:41:40.945Z,100.00
2022-12-18T23:44:43.692Z,100.00
2022-12-18T23:47:47.030Z,100.00
2022-12-18T23:50:53.758Z,100.00
2022-12-18T23:53:59.650Z,100.00
2022-12-18T23:57:02.705Z,100.00
